Time;durP1;ratioP1;P1;durP2;ratioP2;P2;SDS_P1;SDS_P2;PMS_P1;PMS_P2;Temp;Humidity;BMP_temperature;BMP_pressure;BME280_temperature;BME280_humidity;BME280_pressure;Samples;Min_cycle;Max_cycle;Signal;HPM_P1;HPM_P2
2022/10/07 00:00:59;;;;;;;;;;;18.40;95.70;;;;;;5083430;28;20348;-93
2022/10/07 00:03:25;;;;;;;;;;;18.40;95.60;;;;;;5083543;28;19951;-93
2022/10/07 00:06:01;;;;;;;;;;;18.40;95.70;;;;;;5083366;28;19934;-93
2022/10/07 00:08:26;;;;;;;;;;;18.40;95.60;;;;;;5084194;28;19916;-93
2022/10/07 00:10:52;;;;;;;;;;;18.40;95.70;;;;;;5083187;28;20002;-92
2022/10/07 00:13:21;;;;;;;;;;;18.40;95.90;;;;;;5084550;28;20249;-93
2022/10/07 00:15:47;;;;;;;;;;;18.40;95.60;;;;;;5084167;28;19908;-93
2022/10/07 00:18:12;;;;;;;;;;;18.40;95.60;;;;;;5084217;28;19908;-93
2022/10/07 00:20:38;;;;;;;;;;;18.30;95.60;;;;;;5083284;28;19912;-93
2022/10/07 00:23:11;;;;;;;;;;;18.30;95.60;;;;;;5082601;28;20065;-93
2022/10/07 00:25:37;;;;;;;;;;;18.30;95.60;;;;;;5080877;28;19920;-93
2022/10/07 00:28:03;;;;;;;;;;;18.30;95.60;;;;;;5082757;28;20010;-93
2022/10/07 00:30:28;;;;;;;;;;;18.30;95.50;;;;;;5082302;28;19919;-93
2022/10/07 00:32:54;;;;;;;;;;;18.30;95.60;;;;;;5081959;28;19919;-93
2022/10/07 00:35:19;;;;;;;;;;;18.30;95.50;;;;;;5082058;28;19909;-93
2022/10/07 00:37:45;;;;;;;;;;;18.30;95.50;;;;;;5081973;28;19908;-93
2022/10/07 00:40:15;;;;;;;;;;;18.20;95.50;;;;;;5080970;28;19908;-92
2022/10/07 00:42:41;;;;;;;;;;;18.20;95.50;;;;;;5080492;28;19923;-93
2022/10/07 00:45:14;;;;;;;;;;;18.20;95.50;;;;;;5080554;28;19908;-93
2022/10/07 00:47:42;;;;;;;;;;;18.20;95.50;;;;;;5079408;28;19926;-93
2022/10/07 00:50:22;;;;;;;;;;;18.20;95.50;;;;;;5080493;28;19908;-93
2022/10/07 00:52:53;;;;;;;;;;;18.20;95.50;;;;;;5079986;28;19908;-93
2022/10/07 00:55:21;;;;;;;;;;;18.20;95.50;;;;;;5079843;28;19915;-93
2022/10/07 00:57:47;;;;;;;;;;;18.20;95.50;;;;;;5098569;28;19959;-93
2022/10/07 01:00:14;;;;;;;;;;;18.20;95.50;;;;;;5082377;28;20313;-93
2022/10/07 01:02:39;;;;;;;;;;;18.20;95.50;;;;;;5084207;28;19930;-93
2022/10/07 01:05:06;;;;;;;;;;;18.10;95.40;;;;;;5083321;28;20022;-92
2022/10/07 01:07:32;;;;;;;;;;;18.10;95.40;;;;;;5081623;28;19943;-91
2022/10/07 01:09:58;;;;;;;;;;;18.10;95.40;;;;;;5083726;28;19908;-93
2022/10/07 01:12:24;;;;;;;;;;;18.10;95.40;;;;;;5082843;28;20153;-93
2022/10/07 01:14:53;;;;;;;;;;;18.10;95.40;;;;;;5082318;28;19908;-93
2022/10/07 01:17:25;;;;;;;;;;;18.10;95.40;;;;;;5082639;28;19908;-93
2022/10/07 01:20:10;;;;;;;;;;;18.10;95.40;;;;;;5081914;28;19918;-93
2022/10/07 01:22:53;;;;;;;;;;;18.10;95.40;;;;;;5081917;28;19912;-93
2022/10/07 01:25:22;;;;;;;;;;;18.10;95.40;;;;;;5082092;28;19968;-93
2022/10/07 01:28:17;;;;;;;;;;;18.10;95.30;;;;;;5082145;28;19919;-93
2022/10/07 01:30:45;;;;;;;;;;;18.10;95.30;;;;;;5059666;28;19908;-92
2022/10/07 01:33:16;;;;;;;;;;;18.00;95.30;;;;;;5082244;28;19982;-93
2022/10/07 01:35:46;;;;;;;;;;;18.00;95.30;;;;;;5082582;28;19908;-93
2022/10/07 01:38:13;;;;;;;;;;;18.00;95.30;;;;;;5083001;28;19923;-92
2022/10/07 01:40:40;;;;;;;;;;;18.00;95.30;;;;;;5099416;28;19912;-93
2022/10/07 01:43:06;;;;;;;;;;;18.00;95.30;;;;;;5082761;28;19936;-92
2022/10/07 01:45:39;;;;;;;;;;;18.00;95.30;;;;;;5081795;28;19908;-91
2022/10/07 01:48:04;;;;;;;;;;;18.00;95.30;;;;;;5080793;28;20304;-90
2022/10/07 01:50:30;;;;;;;;;;;18.00;95.30;;;;;;5081553;28;19908;-91
2022/10/07 01:53:16;;;;;;;;;;;18.00;95.30;;;;;;5080709;28;20409;-90
2022/10/07 01:55:45;;;;;;;;;;;18.00;95.30;;;;;;5081898;28;20270;-91
2022/10/07 01:58:11;;;;;;;;;;;17.90;95.20;;;;;;5081462;28;19908;-91
2022/10/07 02:00:39;;;;;;;;;;;17.90;95.20;;;;;;5099234;28;19908;-90
2022/10/07 02:03:04;;;;;;;;;;;18.00;95.20;;;;;;5098437;28;19926;-91
2022/10/07 02:05:42;;;;;;;;;;;17.90;95.20;;;;;;5081585;28;19994;-90
2022/10/07 02:08:27;;;;;;;;;;;17.90;95.20;;;;;;5081591;28;20012;-90
2022/10/07 02:10:58;;;;;;;;;;;17.90;95.20;;;;;;5081642;28;19999;-91
2022/10/07 02:13:33;;;;;;;;;;;17.90;95.20;;;;;;5081288;28;19916;-90
2022/10/07 02:15:58;;;;;;;;;;;17.90;95.20;;;;;;5081243;28;19919;-90
2022/10/07 02:18:32;;;;;;;;;;;17.90;95.20;;;;;;5081170;28;19998;-90
2022/10/07 02:20:59;;;;;;;;;;;17.90;95.20;;;;;;5080565;28;19908;-91
2022/10/07 02:23:26;;;;;;;;;;;17.80;95.10;;;;;;5081667;28;19958;-93
2022/10/07 02:25:52;;;;;;;;;;;17.80;95.10;;;;;;5082012;28;19919;-93
2022/10/07 02:28:39;;;;;;;;;;;17.80;95.10;;;;;;5081610;28;19912;-93
2022/10/07 02:31:05;;;;;;;;;;;17.80;95.10;;;;;;5081751;28;20286;-92
2022/10/07 02:33:33;;;;;;;;;;;17.80;95.10;;;;;;5081111;28;19916;-92
2022/10/07 02:35:59;;;;;;;;;;;17.80;95.10;;;;;;5081539;28;19931;-92
2022/10/07 02:38:31;;;;;;;;;;;17.80;95.20;;;;;;5098503;28;19919;-93
2022/10/07 02:41:00;;;;;;;;;;;17.80;95.10;;;;;;5081633;28;19912;-93
2022/10/07 02:43:27;;;;;;;;;;;17.80;95.10;;;;;;5081667;28;20274;-93
2022/10/07 02:46:08;;;;;;;;;;;17.80;95.00;;;;;;5081390;28;19916;-93
2022/10/07 02:48:56;;;;;;;;;;;17.80;95.00;;;;;;5081590;28;19912;-92
2022/10/07 02:51:26;;;;;;;;;;;17.70;95.00;;;;;;5098841;28;19908;-92
2022/10/07 02:53:52;;;;;;;;;;;17.70;95.00;;;;;;5081167;28;19951;-93
2022/10/07 02:56:19;;;;;;;;;;;17.70;95.00;;;;;;5098132;28;19994;-93
2022/10/07 02:58:46;;;;;;;;;;;17.70;95.00;;;;;;5097686;28;19908;-91
2022/10/07 03:01:16;;;;;;;;;;;17.70;95.00;;;;;;5080608;28;20103;-90
2022/10/07 03:03:42;;;;;;;;;;;17.70;95.00;;;;;;5080312;28;19985;-90
2022/10/07 03:06:18;;;;;;;;;;;17.70;95.00;;;;;;5080493;28;20265;-90
2022/10/07 03:08:46;;;;;;;;;;;17.70;95.00;;;;;;5079831;28;19977;-90
2022/10/07 03:11:12;;;;;;;;;;;17.70;95.00;;;;;;5079835;28;19969;-90
2022/10/07 03:13:37;;;;;;;;;;;17.70;95.00;;;;;;5079284;28;19958;-90
2022/10/07 03:16:06;;;;;;;;;;;17.60;94.90;;;;;;5079735;28;19968;-90
2022/10/07 03:18:37;;;;;;;;;;;17.60;94.90;;;;;;5079142;28;19909;-90
2022/10/07 03:21:03;;;;;;;;;;;17.60;94.90;;;;;;5078933;28;19919;-90
2022/10/07 03:23:32;;;;;;;;;;;17.60;94.90;;;;;;5079132;28;19909;-90
2022/10/07 03:25:58;;;;;;;;;;;17.60;95.00;;;;;;5079578;28;19926;-90
2022/10/07 03:28:25;;;;;;;;;;;17.60;94.90;;;;;;5078870;28;20270;-90
2022/10/07 03:30:51;;;;;;;;;;;17.60;94.90;;;;;;5079883;28;19913;-92
2022/10/07 03:33:17;;;;;;;;;;;17.60;94.90;;;;;;5096182;28;20317;-92
2022/10/07 03:35:43;;;;;;;;;;;17.60;94.80;;;;;;5079218;28;19995;-92
2022/10/07 03:38:09;;;;;;;;;;;17.60;94.80;;;;;;5079851;28;19966;-92
2022/10/07 03:40:35;;;;;;;;;;;17.60;94.80;;;;;;5079874;28;19908;-93
2022/10/07 03:43:01;;;;;;;;;;;17.50;94.80;;;;;;5078536;28;20258;-93
2022/10/07 03:45:29;;;;;;;;;;;17.60;94.80;;;;;;5080075;28;19962;-93
2022/10/07 03:47:57;;;;;;;;;;;17.50;94.80;;;;;;5079794;28;19977;-92
2022/10/07 03:50:26;;;;;;;;;;;17.50;94.80;;;;;;5080531;28;19908;-92
2022/10/07 03:52:56;;;;;;;;;;;17.50;94.80;;;;;;5079609;28;19947;-92
2022/10/07 03:55:22;;;;;;;;;;;17.50;94.80;;;;;;5078658;28;19908;-92
2022/10/07 03:57:51;;;;;;;;;;;17.50;94.70;;;;;;5079011;28;19916;-92
2022/10/07 04:00:19;;;;;;;;;;;17.50;94.70;;;;;;5079395;28;19908;-92
2022/10/07 04:02:46;;;;;;;;;;;17.50;94.70;;;;;;5078614;28;20251;-93
2022/10/07 04:05:14;;;;;;;;;;;17.50;94.70;;;;;;5077222;28;19920;-93
2022/10/07 04:07:44;;;;;;;;;;;17.50;94.70;;;;;;5077415;28;19920;-93
2022/10/07 04:10:10;;;;;;;;;;;17.40;94.70;;;;;;5076061;28;19916;-93
2022/10/07 04:12:37;;;;;;;;;;;17.40;94.70;;;;;;5076509;28;19908;-93
2022/10/07 04:15:07;;;;;;;;;;;17.50;94.70;;;;;;5076317;28;19908;-92
2022/10/07 04:17:32;;;;;;;;;;;17.40;94.60;;;;;;5074757;28;20174;-92
2022/10/07 04:19:58;;;;;;;;;;;17.40;94.60;;;;;;5074292;28;20273;-92
2022/10/07 04:22:24;;;;;;;;;;;17.40;94.60;;;;;;5076802;28;19912;-92
2022/10/07 04:27:34;;;;;;;;;;;17.40;94.60;;;;;;5093675;28;20262;-92
2022/10/07 04:29:59;;;;;;;;;;;17.40;94.60;;;;;;5076700;28;20314;-92
2022/10/07 04:32:25;;;;;;;;;;;17.40;94.60;;;;;;5077255;28;20174;-93
2022/10/07 04:34:51;;;;;;;;;;;17.40;94.60;;;;;;5078889;28;19908;-92
2022/10/07 04:37:20;;;;;;;;;;;17.40;94.60;;;;;;5078371;28;19908;-90
2022/10/07 04:39:49;;;;;;;;;;;17.40;94.50;;;;;;5077152;28;19930;-90
2022/10/07 04:44:58;;;;;;;;;;;17.30;94.50;;;;;;5093821;28;20292;-90
2022/10/07 04:47:24;;;;;;;;;;;17.30;94.50;;;;;;5077061;28;20014;-89
2022/10/07 04:49:52;;;;;;;;;;;17.30;94.50;;;;;;5076409;28;19908;-90
2022/10/07 04:52:20;;;;;;;;;;;17.30;94.50;;;;;;5074443;28;19908;-90
2022/10/07 04:54:50;;;;;;;;;;;17.30;94.50;;;;;;5075268;28;20088;-90
2022/10/07 04:57:16;;;;;;;;;;;17.30;94.50;;;;;;5074170;28;19944;-89
2022/10/07 04:59:41;;;;;;;;;;;17.30;94.50;;;;;;5074093;28;19952;-89
2022/10/07 05:02:07;;;;;;;;;;;17.30;94.50;;;;;;5095693;28;19924;-90
2022/10/07 05:04:32;;;;;;;;;;;17.30;94.40;;;;;;5075733;28;19908;-90
2022/10/07 05:07:01;;;;;;;;;;;17.30;94.40;;;;;;5095217;28;20325;-89
2022/10/07 05:09:26;;;;;;;;;;;17.30;94.70;;;;;;5096476;28;19911;-90
2022/10/07 05:11:54;;;;;;;;;;;17.30;94.40;;;;;;5097542;28;19934;-90
2022/10/07 05:14:22;;;;;;;;;;;17.20;94.40;;;;;;5080195;28;19919;-90
2022/10/07 05:16:49;;;;;;;;;;;17.20;94.40;;;;;;5079451;28;20376;-90
2022/10/07 05:19:18;;;;;;;;;;;17.30;94.40;;;;;;5080782;28;19920;-90
2022/10/07 05:21:45;;;;;;;;;;;17.30;94.40;;;;;;5080617;28;19927;-90
2022/10/07 05:24:10;;;;;;;;;;;17.30;94.40;;;;;;5080295;28;19908;-90
2022/10/07 05:26:41;;;;;;;;;;;17.20;94.30;;;;;;5080299;28;19908;-90
2022/10/07 05:29:10;;;;;;;;;;;17.20;94.30;;;;;;5080049;28;19912;-90
2022/10/07 05:31:35;;;;;;;;;;;17.20;94.30;;;;;;5097254;28;19912;-90
2022/10/07 05:34:01;;;;;;;;;;;17.20;94.30;;;;;;5079366;28;19916;-90
2022/10/07 05:36:30;;;;;;;;;;;17.20;94.30;;;;;;5079577;28;19908;-89
2022/10/07 05:38:59;;;;;;;;;;;17.20;94.30;;;;;;5080354;28;20049;-90
2022/10/07 05:41:27;;;;;;;;;;;17.20;94.30;;;;;;5096516;28;20543;-89
2022/10/07 05:43:53;;;;;;;;;;;17.20;94.20;;;;;;5096902;28;19928;-92
2022/10/07 05:46:22;;;;;;;;;;;17.20;94.20;;;;;;5095908;28;19919;-91
2022/10/07 05:48:49;;;;;;;;;;;17.20;94.20;;;;;;5096712;28;20458;-91
2022/10/07 05:51:16;;;;;;;;;;;17.20;94.10;;;;;;5078509;28;20143;-92
2022/10/07 05:53:43;;;;;;;;;;;17.20;94.10;;;;;;5079140;28;19977;-92
2022/10/07 05:56:13;;;;;;;;;;;17.20;94.10;;;;;;5079164;28;20320;-91
2022/10/07 05:58:41;;;;;;;;;;;17.30;94.00;;;;;;5078238;28;20279;-90
2022/10/07 06:01:20;;;;;;;;;;;17.20;93.90;;;;;;5079378;28;19923;-93
2022/10/07 06:03:57;;;;;;;;;;;17.20;93.90;;;;;;5078427;28;19920;-91
2022/10/07 06:06:23;;;;;;;;;;;17.20;93.80;;;;;;5079756;28;19908;-92
2022/10/07 06:08:49;;;;;;;;;;;17.30;93.80;;;;;;5079212;28;19915;-92
2022/10/07 06:14:03;;;;;;;;;;;17.30;93.60;;;;;;5095420;28;19915;-91
2022/10/07 06:16:28;;;;;;;;;;;17.40;93.50;;;;;;5079041;28;19908;-90
2022/10/07 06:18:54;;;;;;;;;;;17.40;93.40;;;;;;5078367;28;19923;-89
2022/10/07 06:21:22;;;;;;;;;;;17.40;93.40;;;;;;5078278;28;19951;-90
2022/10/07 06:23:50;;;;;;;;;;;17.40;93.30;;;;;;5077221;28;19912;-91
2022/10/07 06:26:16;;;;;;;;;;;17.50;93.30;;;;;;5078392;28;19958;-90
2022/10/07 06:28:42;;;;;;;;;;;17.90;93.00;;;;;;5077413;28;19939;-90
2022/10/07 06:31:14;;;;;;;;;;;18.30;91.60;;;;;;5077117;28;19912;-90
2022/10/07 06:33:43;;;;;;;;;;;18.90;90.20;;;;;;5095261;28;19916;-90
2022/10/07 06:36:24;;;;;;;;;;;19.40;87.30;;;;;;5077063;28;19908;-90
2022/10/07 06:38:51;;;;;;;;;;;19.80;82.90;;;;;;5078732;28;19962;-90
2022/10/07 06:41:17;;;;;;;;;;;20.20;79.10;;;;;;5094177;28;19908;-90
2022/10/07 06:43:45;;;;;;;;;;;20.60;76.30;;;;;;5076696;28;19908;-90
2022/10/07 06:46:18;;;;;;;;;;;21.00;72.90;;;;;;5074118;28;19908;-90
2022/10/07 06:48:45;;;;;;;;;;;21.40;69.70;;;;;;5093796;28;19916;-90
2022/10/07 06:51:15;;;;;;;;;;;21.70;67.00;;;;;;5075228;28;19908;-91
2022/10/07 06:53:41;;;;;;;;;;;22.00;64.90;;;;;;5076596;28;19908;-91
2022/10/07 06:56:10;;;;;;;;;;;22.30;63.30;;;;;;5094678;28;19915;-91
2022/10/07 06:58:35;;;;;;;;;;;22.60;61.70;;;;;;5076280;28;19973;-92
2022/10/07 07:01:01;;;;;;;;;;;22.80;60.30;;;;;;5092455;28;19909;-92
2022/10/07 07:03:27;;;;;;;;;;;22.80;59.60;;;;;;5073871;28;19920;-92
2022/10/07 07:05:53;;;;;;;;;;;23.00;59.20;;;;;;5074020;28;19908;-91
2022/10/07 07:08:21;;;;;;;;;;;23.20;58.50;;;;;;5074897;28;19912;-92
2022/10/07 07:10:47;;;;;;;;;;;23.50;57.80;;;;;;5074544;28;19990;-92
2022/10/07 07:13:14;;;;;;;;;;;23.80;56.90;;;;;;5074642;28;20007;-92
2022/10/07 07:15:40;;;;;;;;;;;24.10;56.20;;;;;;5073227;28;20323;-92
2022/10/07 07:18:07;;;;;;;;;;;24.40;55.60;;;;;;5073190;28;19912;-92
2022/10/07 07:20:37;;;;;;;;;;;24.40;57.00;;;;;;5073796;28;19908;-91
2022/10/07 07:23:03;;;;;;;;;;;24.50;55.50;;;;;;5075437;28;19923;-93
2022/10/07 07:25:28;;;;;;;;;;;24.60;55.00;;;;;;5075377;28;20146;-93
2022/10/07 07:28:00;;;;;;;;;;;24.90;54.60;;;;;;5075848;28;19908;-92
2022/10/07 07:30:29;;;;;;;;;;;25.20;54.10;;;;;;5074487;28;20268;-92
2022/10/07 07:32:58;;;;;;;;;;;25.40;53.50;;;;;;5071849;28;19922;-93
2022/10/07 07:35:25;;;;;;;;;;;25.60;53.00;;;;;;5068183;28;20023;-94
2022/10/07 07:37:57;;;;;;;;;;;25.80;52.50;;;;;;5068534;28;19908;-93
2022/10/07 07:40:25;;;;;;;;;;;25.90;52.00;;;;;;5068986;28;20000;-93
2022/10/07 07:42:53;;;;;;;;;;;26.20;51.60;;;;;;5070582;28;20262;-93
2022/10/07 07:45:19;;;;;;;;;;;26.40;51.30;;;;;;5068814;28;19908;-93
2022/10/07 07:47:48;;;;;;;;;;;26.60;50.80;;;;;;5068590;28;19989;-92
2022/10/07 07:50:14;;;;;;;;;;;26.80;50.40;;;;;;5069227;28;20164;-93
2022/10/07 07:52:40;;;;;;;;;;;27.10;50.10;;;;;;5068004;28;20007;-92
2022/10/07 07:55:06;;;;;;;;;;;27.10;49.70;;;;;;5068871;28;19915;-93
2022/10/07 07:57:32;;;;;;;;;;;27.20;49.50;;;;;;5071782;28;19908;-93
2022/10/07 07:59:57;;;;;;;;;;;27.20;49.30;;;;;;5072333;28;20019;-93
2022/10/07 08:02:23;;;;;;;;;;;27.40;49.20;;;;;;5069280;28;20194;-93
2022/10/07 08:04:50;;;;;;;;;;;27.50;48.90;;;;;;5071999;28;20023;-93
2022/10/07 08:07:19;;;;;;;;;;;27.80;48.60;;;;;;5070628;28;19911;-93
2022/10/07 08:09:44;;;;;;;;;;;27.80;48.40;;;;;;5069809;28;19957;-93
2022/10/07 08:12:10;;;;;;;;;;;27.90;48.50;;;;;;5071031;28;19916;-93
2022/10/07 08:14:37;;;;;;;;;;;28.00;47.90;;;;;;5068780;28;19914;-92
2022/10/07 08:17:02;;;;;;;;;;;27.80;47.80;;;;;;5069229;28;19919;-93
2022/10/07 08:19:28;;;;;;;;;;;27.80;47.80;;;;;;5070465;28;19908;-93
2022/10/07 08:21:54;;;;;;;;;;;27.90;47.80;;;;;;5069258;28;19912;-92
2022/10/07 08:24:24;;;;;;;;;;;28.00;47.60;;;;;;5069852;28;19908;-91
2022/10/07 08:26:53;;;;;;;;;;;28.30;47.40;;;;;;5068094;28;19908;-92
2022/10/07 08:29:19;;;;;;;;;;;28.40;47.10;;;;;;5069283;28;19986;-93
2022/10/07 08:31:45;;;;;;;;;;;28.70;46.90;;;;;;5086821;28;20191;-93
2022/10/07 08:34:14;;;;;;;;;;;28.80;46.70;;;;;;5066816;28;19916;-93
2022/10/07 08:36:42;;;;;;;;;;;28.90;46.50;;;;;;5070183;28;20380;-92
2022/10/07 08:39:11;;;;;;;;;;;29.10;46.30;;;;;;5069556;28;20280;-92
2022/10/07 08:41:40;;;;;;;;;;;29.30;46.10;;;;;;5071303;28;19959;-92
2022/10/07 08:44:14;;;;;;;;;;;29.40;45.90;;;;;;5071792;28;19927;-93
2022/10/07 08:46:43;;;;;;;;;;;29.40;45.70;;;;;;5071488;28;20186;-90
2022/10/07 08:49:12;;;;;;;;;;;29.50;45.60;;;;;;5070741;28;20032;-92
2022/10/07 08:51:54;;;;;;;;;;;29.60;45.50;;;;;;5069915;28;19908;-92
2022/10/07 08:54:27;;;;;;;;;;;29.70;45.30;;;;;;5071147;28;19916;-92
2022/10/07 08:57:06;;;;;;;;;;;29.70;45.20;;;;;;5071816;28;19908;-90
2022/10/07 08:59:32;;;;;;;;;;;29.70;45.10;;;;;;5068107;28;20224;-91
2022/10/07 09:02:17;;;;;;;;;;;29.80;45.10;;;;;;5068070;28;19916;-91
2022/10/07 09:04:45;;;;;;;;;;;29.90;45.00;;;;;;5068896;28;20185;-91
2022/10/07 09:07:23;;;;;;;;;;;29.90;44.80;;;;;;5068093;28;19908;-91
2022/10/07 09:09:52;;;;;;;;;;;29.90;44.80;;;;;;5065103;28;19915;-91
2022/10/07 09:12:36;;;;;;;;;;;30.00;44.80;;;;;;5066245;28;20158;-91
2022/10/07 09:15:04;;;;;;;;;;;30.00;44.70;;;;;;5067729;28;19915;-91
2022/10/07 09:17:34;;;;;;;;;;;29.90;44.70;;;;;;5068564;28;20289;-91
2022/10/07 09:20:05;;;;;;;;;;;29.80;44.70;;;;;;5065894;28;20201;-91
2022/10/07 09:22:33;;;;;;;;;;;29.70;44.90;;;;;;5085202;28;19967;-91
2022/10/07 09:25:14;;;;;;;;;;;29.60;44.80;;;;;;5071316;28;19908;-91
2022/10/07 09:27:39;;;;;;;;;;;29.60;44.80;;;;;;5067538;28;19908;-92
2022/10/07 09:30:21;;;;;;;;;;;29.60;44.80;;;;;;5067014;28;19912;-92
2022/10/07 09:32:48;;;;;;;;;;;29.60;44.80;;;;;;5070274;28;19916;-92
2022/10/07 09:35:16;;;;;;;;;;;29.40;44.80;;;;;;5072346;28;20256;-93
2022/10/07 09:37:54;;;;;;;;;;;29.10;44.90;;;;;;5072603;28;19913;-93
2022/10/07 09:40:29;;;;;;;;;;;28.60;45.10;;;;;;5071749;28;19990;-93
2022/10/07 09:42:54;;;;;;;;;;;27.70;45.40;;;;;;5072983;28;20060;-93
2022/10/07 09:45:31;;;;;;;;;;;26.90;46.10;;;;;;5070829;28;19984;-94
2022/10/07 09:48:06;;;;;;;;;;;26.30;46.80;;;;;;5072107;28;20285;-93
2022/10/07 09:50:39;;;;;;;;;;;25.70;47.40;;;;;;5068298;28;20152;-92
2022/10/07 09:53:16;;;;;;;;;;;25.20;48.00;;;;;;5070473;28;19912;-92
2022/10/07 09:55:42;;;;;;;;;;;24.80;48.60;;;;;;5070232;28;19952;-92
2022/10/07 09:58:41;;;;;;;;;;;24.40;49.20;;;;;;5070985;28;20092;-93
2022/10/07 10:01:11;;;;;;;;;;;24.10;49.60;;;;;;5072296;28;19908;-89
2022/10/07 10:03:39;;;;;;;;;;;23.80;50.20;;;;;;5068725;28;20148;-91
2022/10/07 10:06:09;;;;;;;;;;;23.60;50.60;;;;;;5067705;28;20131;-90
2022/10/07 10:08:36;;;;;;;;;;;23.50;50.90;;;;;;5066876;28;19998;-89
2022/10/07 10:11:19;;;;;;;;;;;23.40;51.20;;;;;;5066745;28;19914;-90
2022/10/07 10:13:47;;;;;;;;;;;23.30;51.60;;;;;;5067210;28;19916;-90
2022/10/07 10:16:24;;;;;;;;;;;23.20;51.90;;;;;;5066332;28;20258;-89
2022/10/07 10:18:55;;;;;;;;;;;23.00;52.20;;;;;;5065247;28;19908;-91
2022/10/07 10:21:20;;;;;;;;;;;22.90;52.50;;;;;;5063424;28;19912;-89
2022/10/07 10:23:48;;;;;;;;;;;22.90;52.90;;;;;;5063734;28;19908;-89
2022/10/07 10:26:26;;;;;;;;;;;22.80;53.20;;;;;;5062019;28;19939;-91
2022/10/07 10:29:10;;;;;;;;;;;22.70;53.50;;;;;;5071642;28;19978;-93
2022/10/07 10:31:55;;;;;;;;;;;22.60;53.80;;;;;;5053296;28;20002;-91
2022/10/07 10:34:50;;;;;;;;;;;22.60;54.30;;;;;;5048436;28;19920;-90
2022/10/07 10:37:20;;;;;;;;;;;22.50;54.60;;;;;;4994204;28;19957;-90
2022/10/07 10:39:49;;;;;;;;;;;22.40;55.00;;;;;;5049133;28;20212;-90
2022/10/07 10:42:21;;;;;;;;;;;22.40;55.30;;;;;;5047716;28;20223;-90
2022/10/07 10:45:11;;;;;;;;;;;22.40;55.60;;;;;;5049196;28;19916;-91
2022/10/07 10:47:36;;;;;;;;;;;22.30;55.90;;;;;;5046879;28;19909;-91
2022/10/07 10:50:03;;;;;;;;;;;22.30;56.30;;;;;;5045916;28;20063;-91
2022/10/07 10:52:48;;;;;;;;;;;22.20;56.50;;;;;;5045091;28;19944;-91
2022/10/07 10:55:15;;;;;;;;;;;22.10;56.80;;;;;;5044334;28;19909;-91
2022/10/07 10:57:46;;;;;;;;;;;22.10;57.10;;;;;;5044940;28;19916;-91
2022/10/07 11:00:15;;;;;;;;;;;22.00;57.40;;;;;;5044950;28;20034;-91
2022/10/07 11:02:43;;;;;;;;;;;22.00;57.60;;;;;;5045274;28;19916;-91
2022/10/07 11:05:16;;;;;;;;;;;22.00;57.90;;;;;;5044361;28;19909;-91
2022/10/07 11:07:48;;;;;;;;;;;21.90;58.10;;;;;;5044791;28;19909;-91
2022/10/07 11:10:31;;;;;;;;;;;21.90;58.40;;;;;;5042824;28;20253;-90
2022/10/07 11:12:58;;;;;;;;;;;21.80;58.60;;;;;;5044199;28;19935;-92
2022/10/07 11:15:27;;;;;;;;;;;21.80;58.90;;;;;;5046714;28;19909;-91
2022/10/07 11:17:54;;;;;;;;;;;21.80;59.20;;;;;;5046587;28;19944;-91
2022/10/07 11:20:20;;;;;;;;;;;21.70;59.40;;;;;;5046363;28;20082;-91
2022/10/07 11:23:09;;;;;;;;;;;21.70;59.60;;;;;;5043646;28;19978;-90
2022/10/07 11:25:42;;;;;;;;;;;21.70;59.90;;;;;;5018315;28;19908;-91
2022/10/07 11:28:25;;;;;;;;;;;21.60;60.20;;;;;;5045208;28;19962;-91
2022/10/07 11:30:57;;;;;;;;;;;21.60;60.60;;;;;;5046086;28;19909;-90
2022/10/07 11:33:34;;;;;;;;;;;21.60;61.00;;;;;;5048658;28;20157;-91
2022/10/07 11:36:03;;;;;;;;;;;21.60;61.30;;;;;;5049441;28;20053;-92
2022/10/07 11:38:36;;;;;;;;;;;21.50;61.60;;;;;;5049590;28;20278;-91
2022/10/07 11:41:10;;;;;;;;;;;21.50;61.90;;;;;;5048793;28;20451;-90
2022/10/07 11:43:39;;;;;;;;;;;21.50;62.30;;;;;;5050274;28;19928;-91
2022/10/07 11:46:08;;;;;;;;;;;21.40;62.60;;;;;;5048852;28;19909;-91
2022/10/07 11:48:54;;;;;;;;;;;21.40;62.90;;;;;;5049602;28;19963;-90
2022/10/07 11:54:26;;;;;;;;;;;21.40;63.50;;;;;;5006667;28;20067;-88
2022/10/07 11:56:57;;;;;;;;;;;21.40;63.80;;;;;;5054077;28;19995;-89
2022/10/07 11:59:34;;;;;;;;;;;21.40;64.10;;;;;;5046920;28;20003;-89
2022/10/07 12:02:00;;;;;;;;;;;21.40;64.30;;;;;;5048946;28;20286;-89
2022/10/07 12:04:29;;;;;;;;;;;21.30;64.50;;;;;;5051239;28;19920;-88
2022/10/07 12:07:27;;;;;;;;;;;21.30;64.80;;;;;;5049288;28;19908;-89
2022/10/07 12:09:53;;;;;;;;;;;21.30;65.10;;;;;;5014899;28;19916;-89
2022/10/07 12:12:25;;;;;;;;;;;21.30;65.40;;;;;;5048155;28;19966;-89
2022/10/07 12:15:01;;;;;;;;;;;21.30;65.70;;;;;;5050007;28;20168;-90
2022/10/07 12:17:33;;;;;;;;;;;21.30;65.90;;;;;;5050460;28;19952;-88
2022/10/07 12:20:17;;;;;;;;;;;21.20;66.20;;;;;;5051350;28;20029;-87
2022/10/07 12:23:02;;;;;;;;;;;21.20;66.40;;;;;;5052761;28;19908;-90
2022/10/07 12:25:40;;;;;;;;;;;21.20;66.60;;;;;;5049125;28;20147;-88
2022/10/07 12:28:25;;;;;;;;;;;21.20;66.80;;;;;;5049877;28;19919;-88
2022/10/07 12:30:59;;;;;;;;;;;21.20;67.00;;;;;;5049962;28;19908;-90
2022/10/07 12:33:30;;;;;;;;;;;21.20;67.20;;;;;;5068447;28;19967;-90
2022/10/07 12:36:28;;;;;;;;;;;21.10;67.40;;;;;;5068179;28;20086;-88
2022/10/07 12:38:59;;;;;;;;;;;21.10;67.50;;;;;;5046350;28;19916;-91
2022/10/07 12:41:28;;;;;;;;;;;21.10;67.70;;;;;;5051932;28;19920;-90
2022/10/07 12:43:54;;;;;;;;;;;21.10;67.80;;;;;;5052705;28;19908;-90
2022/10/07 12:46:21;;;;;;;;;;;21.10;68.20;;;;;;5052699;28;19908;-89
2022/10/07 12:48:53;;;;;;;;;;;21.10;68.30;;;;;;5068766;28;19908;-90
2022/10/07 12:51:23;;;;;;;;;;;21.10;68.50;;;;;;5051155;28;19908;-90
2022/10/07 12:53:49;;;;;;;;;;;21.10;68.70;;;;;;5050492;28;19908;-89
2022/10/07 12:56:20;;;;;;;;;;;21.10;68.70;;;;;;5049917;28;20314;-90
2022/10/07 13:01:57;;;;;;;;;;;21.00;69.00;;;;;;5066645;28;19919;-89
2022/10/07 13:04:58;;;;;;;;;;;21.00;69.20;;;;;;5048500;28;19962;-90
2022/10/07 13:07:47;;;;;;;;;;;21.00;69.40;;;;;;4990433;28;19920;-90
2022/10/07 13:10:32;;;;;;;;;;;21.00;69.80;;;;;;4969508;28;20156;-91
2022/10/07 13:13:03;;;;;;;;;;;21.00;70.20;;;;;;5005069;28;20121;-91
2022/10/07 13:15:48;;;;;;;;;;;20.90;70.50;;;;;;5005380;28;20671;-91
2022/10/07 13:18:14;;;;;;;;;;;20.90;70.70;;;;;;5005071;28;19921;-90
2022/10/07 13:20:42;;;;;;;;;;;20.90;71.00;;;;;;5003173;28;19909;-91
2022/10/07 13:23:15;;;;;;;;;;;20.90;71.20;;;;;;5062660;28;20092;-90
2022/10/07 13:25:49;;;;;;;;;;;20.90;71.40;;;;;;5047704;28;19919;-91
2022/10/07 13:28:21;;;;;;;;;;;20.90;71.70;;;;;;5063695;28;20270;-90
2022/10/07 13:30:54;;;;;;;;;;;20.90;72.00;;;;;;5066136;28;19912;-91
2022/10/07 13:33:21;;;;;;;;;;;20.90;72.30;;;;;;5047812;28;19921;-91
2022/10/07 13:35:47;;;;;;;;;;;20.90;72.60;;;;;;5046930;28;19913;-90
2022/10/07 13:38:40;;;;;;;;;;;20.90;72.80;;;;;;5066200;28;19909;-89
2022/10/07 13:41:18;;;;;;;;;;;20.80;72.90;;;;;;5045938;28;20006;-90
2022/10/07 13:43:44;;;;;;;;;;;20.80;73.20;;;;;;5051254;28;20259;-90
2022/10/07 13:46:13;;;;;;;;;;;20.80;73.40;;;;;;5050764;28;20467;-89
2022/10/07 13:48:41;;;;;;;;;;;20.80;73.60;;;;;;5067248;28;20198;-90
2022/10/07 13:51:22;;;;;;;;;;;20.80;73.90;;;;;;5050737;28;19969;-90
2022/10/07 13:53:59;;;;;;;;;;;20.80;74.10;;;;;;5048232;28;19909;-90
2022/10/07 13:56:38;;;;;;;;;;;20.80;74.30;;;;;;5048215;28;19919;-90
2022/10/07 13:59:05;;;;;;;;;;;20.80;74.40;;;;;;5048102;28;19920;-90
2022/10/07 14:01:36;;;;;;;;;;;20.80;74.70;;;;;;5048066;28;19909;-90
2022/10/07 14:04:14;;;;;;;;;;;20.80;74.80;;;;;;5049555;28;20418;-90
2022/10/07 14:06:47;;;;;;;;;;;20.80;75.00;;;;;;5049855;28;19919;-90
2022/10/07 14:09:17;;;;;;;;;;;20.80;75.10;;;;;;5050112;28;20186;-90
2022/10/07 14:11:46;;;;;;;;;;;20.80;75.30;;;;;;5050856;28;19908;-90
2022/10/07 14:14:26;;;;;;;;;;;20.80;75.40;;;;;;5051539;28;19913;-90
2022/10/07 14:16:57;;;;;;;;;;;20.80;75.70;;;;;;5051428;28;19909;-92
2022/10/07 14:19:24;;;;;;;;;;;20.80;75.80;;;;;;5047776;28;20017;-93
2022/10/07 14:21:50;;;;;;;;;;;20.80;75.90;;;;;;5049921;28;19920;-92
2022/10/07 14:24:18;;;;;;;;;;;20.80;76.00;;;;;;5049495;28;19919;-93
2022/10/07 14:26:44;;;;;;;;;;;20.70;76.00;;;;;;5052508;28;19991;-93
2022/10/07 14:29:28;;;;;;;;;;;20.70;76.20;;;;;;5047234;28;19946;-91
2022/10/07 14:35:19;;;;;;;;;;;20.70;76.50;;;;;;5062953;28;20035;-92
2022/10/07 14:37:44;;;;;;;;;;;20.80;76.70;;;;;;5062695;28;19939;-92
2022/10/07 14:40:22;;;;;;;;;;;20.70;76.80;;;;;;5045366;28;19917;-93
2022/10/07 14:42:57;;;;;;;;;;;20.70;76.90;;;;;;5046161;28;19920;-92
2022/10/07 14:45:28;;;;;;;;;;;20.70;77.10;;;;;;5045859;28;20247;-92
2022/10/07 14:47:54;;;;;;;;;;;20.70;77.20;;;;;;5044080;28;19986;-93
2022/10/07 14:50:20;;;;;;;;;;;20.70;77.30;;;;;;5065732;28;19995;-90
2022/10/07 14:52:47;;;;;;;;;;;20.70;77.40;;;;;;5065339;28;20256;-91